Terminal Aerodrome Forecast
Issued by NWS

Home | Current Version | Previous Version | Text Only | Print | Product List | Glossary On
Versions: 1 2 3 4 5 6 7 8 9 10 11 12 13 14 15 16 17 18 19 20 21 22 23
000
FTUS43 KBIS 251900 AAA
TAFMOT
TAF AMD
KMOT 251951Z 2520/2618 27013KT P6SM SKC
     FM260200 26009KT P6SM SKC
     FM260700 23009KT P6SM SCT035 SCT070
     FM261300 26017G23KT P6SM BKN035 BKN070=

USA.gov is the U.S. government's official web portal to all federal, state and local government web resources and services.